sensor_id;sensor_type;location;lat;lon;timestamp;temperature;humidity
46139;DHT22;32398;49.112;8.598;2023-06-04T00:00:38;22.50;48.60
46139;DHT22;32398;49.112;8.598;2023-06-04T00:03:04;22.50;48.60
46139;DHT22;32398;49.112;8.598;2023-06-04T00:05:31;22.50;48.70
46139;DHT22;32398;49.112;8.598;2023-06-04T00:07:58;22.50;48.70
46139;DHT22;32398;49.112;8.598;2023-06-04T00:10:24;22.40;48.70
46139;DHT22;32398;49.112;8.598;2023-06-04T00:12:52;22.40;48.70
46139;DHT22;32398;49.112;8.598;2023-06-04T00:15:19;22.30;48.70
46139;DHT22;32398;49.112;8.598;2023-06-04T00:17:45;22.30;48.70
46139;DHT22;32398;49.112;8.598;2023-06-04T00:20:12;22.30;48.60
46139;DHT22;32398;49.112;8.598;2023-06-04T00:22:39;22.20;48.70
46139;DHT22;32398;49.112;8.598;2023-06-04T00:25:07;22.20;48.90
46139;DHT22;32398;49.112;8.598;2023-06-04T00:27:33;22.20;48.80
46139;DHT22;32398;49.112;8.598;2023-06-04T00:30:01;22.10;48.80
46139;DHT22;32398;49.112;8.598;2023-06-04T00:32:28;22.10;48.80
46139;DHT22;32398;49.112;8.598;2023-06-04T00:34:55;22.00;48.90
46139;DHT22;32398;49.112;8.598;2023-06-04T00:37:23;22.00;49.00
46139;DHT22;32398;49.112;8.598;2023-06-04T00:39:50;22.00;49.00
46139;DHT22;32398;49.112;8.598;2023-06-04T00:42:16;21.90;49.00
46139;DHT22;32398;49.112;8.598;2023-06-04T00:44:43;21.90;48.90
46139;DHT22;32398;49.112;8.598;2023-06-04T00:47:12;21.80;48.90
46139;DHT22;32398;49.112;8.598;2023-06-04T00:49:38;21.80;48.90
46139;DHT22;32398;49.112;8.598;2023-06-04T00:52:06;21.80;48.90
46139;DHT22;32398;49.112;8.598;2023-06-04T00:54:34;21.70;48.90
46139;DHT22;32398;49.112;8.598;2023-06-04T00:57:01;21.70;49.00
46139;DHT22;32398;49.112;8.598;2023-06-04T00:59:28;21.70;48.90
46139;DHT22;32398;49.112;8.598;2023-06-04T01:01:58;21.60;48.90
46139;DHT22;32398;49.112;8.598;2023-06-04T01:04:29;21.60;48.90
46139;DHT22;32398;49.112;8.598;2023-06-04T01:06:56;21.50;48.80
46139;DHT22;32398;49.112;8.598;2023-06-04T01:09:24;21.50;48.70
46139;DHT22;32398;49.112;8.598;2023-06-04T01:11:51;21.40;48.60
46139;DHT22;32398;49.112;8.598;2023-06-04T01:14:17;21.40;48.60
46139;DHT22;32398;49.112;8.598;2023-06-04T01:16:45;21.40;48.50
46139;DHT22;32398;49.112;8.598;2023-06-04T01:19:18;21.40;48.60
46139;DHT22;32398;49.112;8.598;2023-06-04T01:21:51;21.30;48.40
46139;DHT22;32398;49.112;8.598;2023-06-04T01:24:19;21.30;48.40
46139;DHT22;32398;49.112;8.598;2023-06-04T01:26:47;21.30;48.40
46139;DHT22;32398;49.112;8.598;2023-06-04T01:29:15;21.20;48.40
46139;DHT22;32398;49.112;8.598;2023-06-04T01:31:41;21.20;48.40
46139;DHT22;32398;49.112;8.598;2023-06-04T01:34:08;21.20;48.40
46139;DHT22;32398;49.112;8.598;2023-06-04T01:36:35;21.10;48.40
46139;DHT22;32398;49.112;8.598;2023-06-04T01:39:03;21.10;48.40
46139;DHT22;32398;49.112;8.598;2023-06-04T01:41:29;21.10;48.40
46139;DHT22;32398;49.112;8.598;2023-06-04T01:43:56;21.00;48.30
46139;DHT22;32398;49.112;8.598;2023-06-04T01:46:22;21.00;48.40
46139;DHT22;32398;49.112;8.598;2023-06-04T01:48:49;21.00;48.30
46139;DHT22;32398;49.112;8.598;2023-06-04T01:51:15;20.90;48.10
46139;DHT22;32398;49.112;8.598;2023-06-04T01:53:42;20.90;48.10
46139;DHT22;32398;49.112;8.598;2023-06-04T01:56:10;20.90;48.10
46139;DHT22;32398;49.112;8.598;2023-06-04T01:58:36;20.90;48.70
46139;DHT22;32398;49.112;8.598;2023-06-04T02:01:03;20.80;48.00
46139;DHT22;32398;49.112;8.598;2023-06-04T02:03:30;20.80;47.90
46139;DHT22;32398;49.112;8.598;2023-06-04T02:06:02;20.70;47.90
46139;DHT22;32398;49.112;8.598;2023-06-04T02:08:29;20.70;47.90
46139;DHT22;32398;49.112;8.598;2023-06-04T02:10:55;20.70;47.70
46139;DHT22;32398;49.112;8.598;2023-06-04T02:13:23;20.70;47.80
46139;DHT22;32398;49.112;8.598;2023-06-04T02:15:50;20.70;47.70
46139;DHT22;32398;49.112;8.598;2023-06-04T02:18:17;20.60;47.60
46139;DHT22;32398;49.112;8.598;2023-06-04T02:20:46;20.60;48.10
46139;DHT22;32398;49.112;8.598;2023-06-04T02:23:14;20.60;47.40
46139;DHT22;32398;49.112;8.598;2023-06-04T02:25:41;20.50;47.40
46139;DHT22;32398;49.112;8.598;2023-06-04T02:28:09;20.50;47.30
46139;DHT22;32398;49.112;8.598;2023-06-04T02:30:38;20.50;47.30
46139;DHT22;32398;49.112;8.598;2023-06-04T02:33:04;20.40;47.30
46139;DHT22;32398;49.112;8.598;2023-06-04T02:35:31;20.40;47.10
46139;DHT22;32398;49.112;8.598;2023-06-04T02:37:58;20.40;47.20
46139;DHT22;32398;49.112;8.598;2023-06-04T02:40:24;20.30;47.10
46139;DHT22;32398;49.112;8.598;2023-06-04T02:42:51;20.30;47.10
46139;DHT22;32398;49.112;8.598;2023-06-04T02:45:18;20.30;47.10
46139;DHT22;32398;49.112;8.598;2023-06-04T02:47:46;20.30;47.00
46139;DHT22;32398;49.112;8.598;2023-06-04T02:50:13;20.20;46.90
46139;DHT22;32398;49.112;8.598;2023-06-04T02:52:40;20.20;47.00
46139;DHT22;32398;49.112;8.598;2023-06-04T02:55:07;20.20;47.20
46139;DHT22;32398;49.112;8.598;2023-06-04T02:57:34;20.10;47.00
46139;DHT22;32398;49.112;8.598;2023-06-04T03:00:01;20.10;47.10
46139;DHT22;32398;49.112;8.598;2023-06-04T03:02:33;20.10;47.20
46139;DHT22;32398;49.112;8.598;2023-06-04T03:05:01;20.10;47.20
46139;DHT22;32398;49.112;8.598;2023-06-04T03:07:27;20.00;47.30
46139;DHT22;32398;49.112;8.598;2023-06-04T03:09:54;20.00;47.20
46139;DHT22;32398;49.112;8.598;2023-06-04T03:12:21;20.00;47.30
46139;DHT22;32398;49.112;8.598;2023-06-04T03:14:47;19.90;47.30
46139;DHT22;32398;49.112;8.598;2023-06-04T03:17:14;19.90;47.20
46139;DHT22;32398;49.112;8.598;2023-06-04T03:19:41;19.90;47.40
46139;DHT22;32398;49.112;8.598;2023-06-04T03:22:09;19.90;47.60
46139;DHT22;32398;49.112;8.598;2023-06-04T03:24:36;19.80;47.70
46139;DHT22;32398;49.112;8.598;2023-06-04T03:27:03;19.80;47.70
46139;DHT22;32398;49.112;8.598;2023-06-04T03:29:31;19.80;47.80
46139;DHT22;32398;49.112;8.598;2023-06-04T03:31:58;19.80;47.80
46139;DHT22;32398;49.112;8.598;2023-06-04T03:34:24;19.70;47.70
46139;DHT22;32398;49.112;8.598;2023-06-04T03:36:51;19.70;47.80
46139;DHT22;32398;49.112;8.598;2023-06-04T03:39:19;19.70;48.00
46139;DHT22;32398;49.112;8.598;2023-06-04T03:41:45;19.60;47.90
46139;DHT22;32398;49.112;8.598;2023-06-04T03:44:12;19.60;47.80
46139;DHT22;32398;49.112;8.598;2023-06-04T03:46:39;19.60;48.20
46139;DHT22;32398;49.112;8.598;2023-06-04T03:49:05;19.50;48.00
46139;DHT22;32398;49.112;8.598;2023-06-04T03:51:32;19.50;48.00
46139;DHT22;32398;49.112;8.598;2023-06-04T03:53:59;19.50;48.00
46139;DHT22;32398;49.112;8.598;2023-06-04T03:56:28;19.50;48.00
46139;DHT22;32398;49.112;8.598;2023-06-04T03:58:55;19.50;48.10
46139;DHT22;32398;49.112;8.598;2023-06-04T04:01:22;19.40;48.00
46139;DHT22;32398;49.112;8.598;2023-06-04T04:03:49;19.40;48.10
46139;DHT22;32398;49.112;8.598;2023-06-04T04:06:16;19.40;48.60
46139;DHT22;32398;49.112;8.598;2023-06-04T04:08:42;19.30;48.30
46139;DHT22;32398;49.112;8.598;2023-06-04T04:11:09;19.30;48.40
46139;DHT22;32398;49.112;8.598;2023-06-04T04:13:37;19.30;48.40
46139;DHT22;32398;49.112;8.598;2023-06-04T04:16:03;19.30;48.40
46139;DHT22;32398;49.112;8.598;2023-06-04T04:18:32;19.30;48.50
46139;DHT22;32398;49.112;8.598;2023-06-04T04:20:58;19.20;48.60
46139;DHT22;32398;49.112;8.598;2023-06-04T04:23:25;19.20;48.70
46139;DHT22;32398;49.112;8.598;2023-06-04T04:25:52;19.20;48.80
46139;DHT22;32398;49.112;8.598;2023-06-04T04:28:19;19.20;49.00
46139;DHT22;32398;49.112;8.598;2023-06-04T04:30:46;19.20;49.10
46139;DHT22;32398;49.112;8.598;2023-06-04T04:33:14;19.10;49.10
46139;DHT22;32398;49.112;8.598;2023-06-04T04:35:42;19.10;49.30
46139;DHT22;32398;49.112;8.598;2023-06-04T04:38:09;19.10;49.40
46139;DHT22;32398;49.112;8.598;2023-06-04T04:40:36;19.00;49.50
46139;DHT22;32398;49.112;8.598;2023-06-04T04:43:02;19.10;49.60
46139;DHT22;32398;49.112;8.598;2023-06-04T04:45:29;19.00;49.70
46139;DHT22;32398;49.112;8.598;2023-06-04T04:47:57;19.00;49.80
46139;DHT22;32398;49.112;8.598;2023-06-04T04:50:23;19.00;49.90
46139;DHT22;32398;49.112;8.598;2023-06-04T04:52:50;19.00;50.10
46139;DHT22;32398;49.112;8.598;2023-06-04T04:55:16;18.90;50.20
46139;DHT22;32398;49.112;8.598;2023-06-04T04:57:43;18.90;50.30
46139;DHT22;32398;49.112;8.598;2023-06-04T05:00:10;18.90;50.40
46139;DHT22;32398;49.112;8.598;2023-06-04T05:02:37;18.90;50.40
46139;DHT22;32398;49.112;8.598;2023-06-04T05:05:06;18.90;51.00
46139;DHT22;32398;49.112;8.598;2023-06-04T05:07:32;18.80;50.40
46139;DHT22;32398;49.112;8.598;2023-06-04T05:09:59;18.80;50.40
46139;DHT22;32398;49.112;8.598;2023-06-04T05:12:25;18.80;50.50
46139;DHT22;32398;49.112;8.598;2023-06-04T05:14:52;18.80;50.40
46139;DHT22;32398;49.112;8.598;2023-06-04T05:17:18;18.80;50.40
46139;DHT22;32398;49.112;8.598;2023-06-04T05:19:55;18.80;50.20
46139;DHT22;32398;49.112;8.598;2023-06-04T05:22:29;18.80;50.20
46139;DHT22;32398;49.112;8.598;2023-06-04T05:24:57;18.70;50.00
46139;DHT22;32398;49.112;8.598;2023-06-04T05:27:24;18.70;50.00
46139;DHT22;32398;49.112;8.598;2023-06-04T05:29:51;18.70;49.80
46139;DHT22;32398;49.112;8.598;2023-06-04T05:32:17;18.70;49.80
46139;DHT22;32398;49.112;8.598;2023-06-04T05:34:44;18.70;49.70
46139;DHT22;32398;49.112;8.598;2023-06-04T05:37:12;18.70;49.70
46139;DHT22;32398;49.112;8.598;2023-06-04T05:39:43;18.70;49.50
46139;DHT22;32398;49.112;8.598;2023-06-04T05:42:09;18.70;49.40
46139;DHT22;32398;49.112;8.598;2023-06-04T05:44:36;18.70;49.30
46139;DHT22;32398;49.112;8.598;2023-06-04T05:47:02;18.70;49.30
46139;DHT22;32398;49.112;8.598;2023-06-04T05:49:29;18.70;49.20
46139;DHT22;32398;49.112;8.598;2023-06-04T05:51:57;18.60;49.20
46139;DHT22;32398;49.112;8.598;2023-06-04T05:54:24;18.70;49.30
46139;DHT22;32398;49.112;8.598;2023-06-04T05:56:51;18.70;49.30
46139;DHT22;32398;49.112;8.598;2023-06-04T05:59:18;18.70;49.20
46139;DHT22;32398;49.112;8.598;2023-06-04T06:01:44;18.70;49.20
46139;DHT22;32398;49.112;8.598;2023-06-04T06:04:13;18.70;49.20
46139;DHT22;32398;49.112;8.598;2023-06-04T06:06:39;18.70;49.10
46139;DHT22;32398;49.112;8.598;2023-06-04T06:09:06;18.70;49.10
46139;DHT22;32398;49.112;8.598;2023-06-04T06:11:34;18.70;48.90
46139;DHT22;32398;49.112;8.598;2023-06-04T06:14:02;18.70;49.00
46139;DHT22;32398;49.112;8.598;2023-06-04T06:16:28;18.70;48.90
46139;DHT22;32398;49.112;8.598;2023-06-04T06:18:55;18.70;48.90
46139;DHT22;32398;49.112;8.598;2023-06-04T06:21:21;18.70;48.80
46139;DHT22;32398;49.112;8.598;2023-06-04T06:23:48;18.70;48.80
46139;DHT22;32398;49.112;8.598;2023-06-04T06:26:15;18.70;48.70
46139;DHT22;32398;49.112;8.598;2023-06-04T06:28:41;18.70;48.70
46139;DHT22;32398;49.112;8.598;2023-06-04T06:31:09;18.70;48.70
46139;DHT22;32398;49.112;8.598;2023-06-04T06:33:36;18.70;48.60
46139;DHT22;32398;49.112;8.598;2023-06-04T06:36:06;18.70;48.60
46139;DHT22;32398;49.112;8.598;2023-06-04T06:38:33;18.70;48.50
46139;DHT22;32398;49.112;8.598;2023-06-04T06:41:00;18.70;48.50
46139;DHT22;32398;49.112;8.598;2023-06-04T06:43:26;18.70;48.40
46139;DHT22;32398;49.112;8.598;2023-06-04T06:45:53;18.80;48.40
46139;DHT22;32398;49.112;8.598;2023-06-04T06:48:21;18.80;48.40
46139;DHT22;32398;49.112;8.598;2023-06-04T06:50:47;18.80;48.40
46139;DHT22;32398;49.112;8.598;2023-06-04T06:53:14;18.80;48.30
46139;DHT22;32398;49.112;8.598;2023-06-04T06:55:40;18.80;48.30
46139;DHT22;32398;49.112;8.598;2023-06-04T06:58:07;18.80;48.20
46139;DHT22;32398;49.112;8.598;2023-06-04T07:00:33;18.80;48.20
46139;DHT22;32398;49.112;8.598;2023-06-04T07:03:00;18.80;48.10
46139;DHT22;32398;49.112;8.598;2023-06-04T07:05:28;18.80;48.10
46139;DHT22;32398;49.112;8.598;2023-06-04T07:07:54;18.80;48.10
46139;DHT22;32398;49.112;8.598;2023-06-04T07:10:22;18.80;48.20
46139;DHT22;32398;49.112;8.598;2023-06-04T07:12:49;18.80;48.20
46139;DHT22;32398;49.112;8.598;2023-06-04T07:15:16;18.90;48.20
46139;DHT22;32398;49.112;8.598;2023-06-04T07:17:44;18.90;48.20
46139;DHT22;32398;49.112;8.598;2023-06-04T07:20:10;18.90;48.20
46139;DHT22;32398;49.112;8.598;2023-06-04T07:22:38;18.90;48.20
46139;DHT22;32398;49.112;8.598;2023-06-04T07:25:05;18.90;48.30
46139;DHT22;32398;49.112;8.598;2023-06-04T07:27:33;18.90;48.30
46139;DHT22;32398;49.112;8.598;2023-06-04T07:30:00;19.00;48.30
46139;DHT22;32398;49.112;8.598;2023-06-04T07:32:26;19.00;48.30
46139;DHT22;32398;49.112;8.598;2023-06-04T07:34:53;19.00;48.30
46139;DHT22;32398;49.112;8.598;2023-06-04T07:37:19;19.00;48.40
46139;DHT22;32398;49.112;8.598;2023-06-04T07:39:47;19.00;48.40
46139;DHT22;32398;49.112;8.598;2023-06-04T07:42:14;19.00;48.40
46139;DHT22;32398;49.112;8.598;2023-06-04T07:44:40;19.10;48.60
46139;DHT22;32398;49.112;8.598;2023-06-04T07:47:07;19.10;48.60
46139;DHT22;32398;49.112;8.598;2023-06-04T07:49:33;19.10;48.60
46139;DHT22;32398;49.112;8.598;2023-06-04T07:52:00;19.10;48.50
46139;DHT22;32398;49.112;8.598;2023-06-04T07:54:26;19.10;48.50
46139;DHT22;32398;49.112;8.598;2023-06-04T07:56:54;19.10;48.40
46139;DHT22;32398;49.112;8.598;2023-06-04T07:59:22;19.20;48.40
46139;DHT22;32398;49.112;8.598;2023-06-04T08:01:49;19.20;48.50
46139;DHT22;32398;49.112;8.598;2023-06-04T08:04:16;19.20;48.40
46139;DHT22;32398;49.112;8.598;2023-06-04T08:06:42;19.20;48.50
46139;DHT22;32398;49.112;8.598;2023-06-04T08:09:09;19.30;48.60
46139;DHT22;32398;49.112;8.598;2023-06-04T08:11:36;19.30;48.60
46139;DHT22;32398;49.112;8.598;2023-06-04T08:14:04;19.30;48.60
46139;DHT22;32398;49.112;8.598;2023-06-04T08:16:31;19.30;48.60
46139;DHT22;32398;49.112;8.598;2023-06-04T08:18:58;19.40;48.50
46139;DHT22;32398;49.112;8.598;2023-06-04T08:21:25;19.40;48.50
46139;DHT22;32398;49.112;8.598;2023-06-04T08:23:51;19.40;48.90
46139;DHT22;32398;49.112;8.598;2023-06-04T08:26:18;19.40;48.60
46139;DHT22;32398;49.112;8.598;2023-06-04T08:28:44;19.50;48.70
46139;DHT22;32398;49.112;8.598;2023-06-04T08:31:12;19.50;48.60
46139;DHT22;32398;49.112;8.598;2023-06-04T08:33:39;19.50;49.20
46139;DHT22;32398;49.112;8.598;2023-06-04T08:36:05;19.50;48.70
46139;DHT22;32398;49.112;8.598;2023-06-04T08:38:32;19.60;48.70
46139;DHT22;32398;49.112;8.598;2023-06-04T08:41:04;19.60;48.60
46139;DHT22;32398;49.112;8.598;2023-06-04T08:43:35;19.70;48.70
46139;DHT22;32398;49.112;8.598;2023-06-04T08:46:03;19.70;48.80
46139;DHT22;32398;49.112;8.598;2023-06-04T08:48:35;19.70;48.80
46139;DHT22;32398;49.112;8.598;2023-06-04T08:51:02;19.80;48.90
46139;DHT22;32398;49.112;8.598;2023-06-04T08:53:32;19.80;48.80
46139;DHT22;32398;49.112;8.598;2023-06-04T08:55:59;19.80;48.90
46139;DHT22;32398;49.112;8.598;2023-06-04T08:58:25;19.80;49.00
46139;DHT22;32398;49.112;8.598;2023-06-04T09:00:52;19.90;48.90
46139;DHT22;32398;49.112;8.598;2023-06-04T09:03:19;19.90;49.20
46139;DHT22;32398;49.112;8.598;2023-06-04T09:05:47;20.00;49.20
46139;DHT22;32398;49.112;8.598;2023-06-04T09:08:15;20.00;49.20
46139;DHT22;32398;49.112;8.598;2023-06-04T09:10:43;20.10;49.30
46139;DHT22;32398;49.112;8.598;2023-06-04T09:13:10;20.20;49.30
46139;DHT22;32398;49.112;8.598;2023-06-04T09:15:37;20.20;49.30
46139;DHT22;32398;49.112;8.598;2023-06-04T09:18:03;20.20;49.00
46139;DHT22;32398;49.112;8.598;2023-06-04T09:20:30;20.20;49.00
46139;DHT22;32398;49.112;8.598;2023-06-04T09:22:59;20.30;49.20
46139;DHT22;32398;49.112;8.598;2023-06-04T09:25:26;20.40;48.90
46139;DHT22;32398;49.112;8.598;2023-06-04T09:27:53;20.40;48.90
46139;DHT22;32398;49.112;8.598;2023-06-04T09:30:20;20.40;49.10
46139;DHT22;32398;49.112;8.598;2023-06-04T09:32:47;20.40;48.90
46139;DHT22;32398;49.112;8.598;2023-06-04T09:35:14;20.50;48.90
46139;DHT22;32398;49.112;8.598;2023-06-04T09:37:41;20.50;48.80
46139;DHT22;32398;49.112;8.598;2023-06-04T09:40:09;20.60;48.70
46139;DHT22;32398;49.112;8.598;2023-06-04T09:42:42;20.60;48.60
46139;DHT22;32398;49.112;8.598;2023-06-04T09:45:10;20.70;48.40
46139;DHT22;32398;49.112;8.598;2023-06-04T09:47:40;20.80;48.50
46139;DHT22;32398;49.112;8.598;2023-06-04T09:50:07;20.80;48.50
46139;DHT22;32398;49.112;8.598;2023-06-04T09:52:34;20.90;48.40
46139;DHT22;32398;49.112;8.598;2023-06-04T09:55:01;21.00;48.30
46139;DHT22;32398;49.112;8.598;2023-06-04T09:57:29;21.00;48.30
46139;DHT22;32398;49.112;8.598;2023-06-04T09:59:56;21.10;47.90
46139;DHT22;32398;49.112;8.598;2023-06-04T10:02:23;21.20;47.60
46139;DHT22;32398;49.112;8.598;2023-06-04T10:04:52;21.30;47.10
46139;DHT22;32398;49.112;8.598;2023-06-04T10:07:19;21.30;47.10
46139;DHT22;32398;49.112;8.598;2023-06-04T10:09:46;21.40;46.80
46139;DHT22;32398;49.112;8.598;2023-06-04T10:12:14;21.40;46.80
46139;DHT22;32398;49.112;8.598;2023-06-04T10:14:44;21.50;47.10
46139;DHT22;32398;49.112;8.598;2023-06-04T10:17:12;21.60;46.50
46139;DHT22;32398;49.112;8.598;2023-06-04T10:19:38;21.70;46.40
46139;DHT22;32398;49.112;8.598;2023-06-04T10:22:08;21.70;46.10
46139;DHT22;32398;49.112;8.598;2023-06-04T10:24:36;21.80;45.80
46139;DHT22;32398;49.112;8.598;2023-06-04T10:27:03;21.90;45.60
46139;DHT22;32398;49.112;8.598;2023-06-04T10:29:35;22.00;45.50
46139;DHT22;32398;49.112;8.598;2023-06-04T10:32:03;22.00;45.20
46139;DHT22;32398;49.112;8.598;2023-06-04T10:34:30;22.10;44.90
46139;DHT22;32398;49.112;8.598;2023-06-04T10:36:57;22.10;44.10
46139;DHT22;32398;49.112;8.598;2023-06-04T10:39:26;22.20;43.30
46139;DHT22;32398;49.112;8.598;2023-06-04T10:41:57;22.30;43.40
46139;DHT22;32398;49.112;8.598;2023-06-04T10:44:24;22.30;43.80
46139;DHT22;32398;49.112;8.598;2023-06-04T10:46:50;22.40;44.00
46139;DHT22;32398;49.112;8.598;2023-06-04T10:49:26;22.50;43.90
46139;DHT22;32398;49.112;8.598;2023-06-04T10:51:53;22.50;43.80
46139;DHT22;32398;49.112;8.598;2023-06-04T10:54:22;22.60;43.80
46139;DHT22;32398;49.112;8.598;2023-06-04T10:56:49;22.70;43.50
46139;DHT22;32398;49.112;8.598;2023-06-04T10:59:16;22.80;43.30
46139;DHT22;32398;49.112;8.598;2023-06-04T11:01:43;22.80;42.80
46139;DHT22;32398;49.112;8.598;2023-06-04T11:04:17;22.90;42.40
46139;DHT22;32398;49.112;8.598;2023-06-04T11:06:45;22.90;42.10
46139;DHT22;32398;49.112;8.598;2023-06-04T11:09:13;23.00;42.30
46139;DHT22;32398;49.112;8.598;2023-06-04T11:11:41;23.10;43.00
46139;DHT22;32398;49.112;8.598;2023-06-04T11:14:08;23.10;42.20
46139;DHT22;32398;49.112;8.598;2023-06-04T11:16:35;23.20;42.10
46139;DHT22;32398;49.112;8.598;2023-06-04T11:19:02;23.30;41.80
46139;DHT22;32398;49.112;8.598;2023-06-04T11:21:28;23.30;41.70
46139;DHT22;32398;49.112;8.598;2023-06-04T11:23:57;23.40;41.20
46139;DHT22;32398;49.112;8.598;2023-06-04T11:26:29;23.50;41.20
46139;DHT22;32398;49.112;8.598;2023-06-04T11:28:55;23.50;41.30
46139;DHT22;32398;49.112;8.598;2023-06-04T11:31:22;23.60;40.80
46139;DHT22;32398;49.112;8.598;2023-06-04T11:33:48;23.60;40.70
46139;DHT22;32398;49.112;8.598;2023-06-04T11:36:24;23.70;40.50
46139;DHT22;32398;49.112;8.598;2023-06-04T11:38:57;23.80;40.40
46139;DHT22;32398;49.112;8.598;2023-06-04T11:41:24;23.80;40.30
46139;DHT22;32398;49.112;8.598;2023-06-04T11:43:51;23.90;39.90
46139;DHT22;32398;49.112;8.598;2023-06-04T11:46:17;24.00;40.10
46139;DHT22;32398;49.112;8.598;2023-06-04T11:48:44;24.00;40.20
46139;DHT22;32398;49.112;8.598;2023-06-04T11:51:10;24.10;40.00
46139;DHT22;32398;49.112;8.598;2023-06-04T11:53:37;24.10;39.50
46139;DHT22;32398;49.112;8.598;2023-06-04T11:56:05;24.20;39.20
46139;DHT22;32398;49.112;8.598;2023-06-04T11:58:32;24.20;39.00
46139;DHT22;32398;49.112;8.598;2023-06-04T12:00:59;24.30;39.00
46139;DHT22;32398;49.112;8.598;2023-06-04T12:03:33;24.30;39.00
46139;DHT22;32398;49.112;8.598;2023-06-04T12:06:08;24.40;39.60
46139;DHT22;32398;49.112;8.598;2023-06-04T12:08:43;24.50;39.20
46139;DHT22;32398;49.112;8.598;2023-06-04T12:11:21;24.50;38.90
46139;DHT22;32398;49.112;8.598;2023-06-04T12:13:48;24.50;38.70
46139;DHT22;32398;49.112;8.598;2023-06-04T12:16:14;24.60;38.90
46139;DHT22;32398;49.112;8.598;2023-06-04T12:18:41;24.70;38.90
46139;DHT22;32398;49.112;8.598;2023-06-04T12:21:15;24.70;38.80
46139;DHT22;32398;49.112;8.598;2023-06-04T12:23:42;24.80;39.20
46139;DHT22;32398;49.112;8.598;2023-06-04T12:26:20;24.90;39.10
46139;DHT22;32398;49.112;8.598;2023-06-04T12:29:00;24.90;39.50
46139;DHT22;32398;49.112;8.598;2023-06-04T12:31:27;25.00;39.20
46139;DHT22;32398;49.112;8.598;2023-06-04T12:33:58;25.00;39.10
46139;DHT22;32398;49.112;8.598;2023-06-04T12:36:24;25.10;39.30
46139;DHT22;32398;49.112;8.598;2023-06-04T12:38:51;25.10;39.00
46139;DHT22;32398;49.112;8.598;2023-06-04T12:41:17;25.10;38.50
46139;DHT22;32398;49.112;8.598;2023-06-04T12:43:45;25.20;38.90
46139;DHT22;32398;49.112;8.598;2023-06-04T12:46:12;25.20;38.80
46139;DHT22;32398;49.112;8.598;2023-06-04T12:48:38;25.30;39.30
46139;DHT22;32398;49.112;8.598;2023-06-04T12:51:05;25.30;38.80
46139;DHT22;32398;49.112;8.598;2023-06-04T12:53:32;25.40;38.40
46139;DHT22;32398;49.112;8.598;2023-06-04T12:55:58;25.40;38.60
46139;DHT22;32398;49.112;8.598;2023-06-04T12:58:25;25.50;38.50
46139;DHT22;32398;49.112;8.598;2023-06-04T13:00:53;25.50;38.20
46139;DHT22;32398;49.112;8.598;2023-06-04T13:03:20;25.60;38.40
46139;DHT22;32398;49.112;8.598;2023-06-04T13:05:46;25.60;38.60
46139;DHT22;32398;49.112;8.598;2023-06-04T13:08:13;25.70;38.50
46139;DHT22;32398;49.112;8.598;2023-06-04T13:10:40;25.70;39.10
46139;DHT22;32398;49.112;8.598;2023-06-04T13:13:06;25.80;38.40
46139;DHT22;32398;49.112;8.598;2023-06-04T13:15:33;25.80;38.00
46139;DHT22;32398;49.112;8.598;2023-06-04T13:18:01;25.90;38.00
46139;DHT22;32398;49.112;8.598;2023-06-04T13:20:28;25.90;37.70
46139;DHT22;32398;49.112;8.598;2023-06-04T13:22:55;26.00;37.90
46139;DHT22;32398;49.112;8.598;2023-06-04T13:25:21;26.00;38.00
46139;DHT22;32398;49.112;8.598;2023-06-04T13:27:48;26.10;37.70
46139;DHT22;32398;49.112;8.598;2023-06-04T13:30:14;26.10;37.00
46139;DHT22;32398;49.112;8.598;2023-06-04T13:32:41;26.20;37.70
46139;DHT22;32398;49.112;8.598;2023-06-04T13:35:09;26.20;37.80
46139;DHT22;32398;49.112;8.598;2023-06-04T13:37:35;26.20;37.30
46139;DHT22;32398;49.112;8.598;2023-06-04T13:40:02;26.30;37.00
46139;DHT22;32398;49.112;8.598;2023-06-04T13:42:29;26.40;37.00
46139;DHT22;32398;49.112;8.598;2023-06-04T13:44:55;26.40;37.30
46139;DHT22;32398;49.112;8.598;2023-06-04T13:47:22;26.50;37.20
46139;DHT22;32398;49.112;8.598;2023-06-04T13:49:49;26.50;37.50
46139;DHT22;32398;49.112;8.598;2023-06-04T13:52:17;26.60;36.90
46139;DHT22;32398;49.112;8.598;2023-06-04T13:54:43;26.60;36.50
46139;DHT22;32398;49.112;8.598;2023-06-04T13:57:10;26.70;36.10
46139;DHT22;32398;49.112;8.598;2023-06-04T13:59:36;26.70;35.90
46139;DHT22;32398;49.112;8.598;2023-06-04T14:02:03;26.80;36.10
46139;DHT22;32398;49.112;8.598;2023-06-04T14:04:30;26.80;35.60
46139;DHT22;32398;49.112;8.598;2023-06-04T14:06:56;26.90;36.30
46139;DHT22;32398;49.112;8.598;2023-06-04T14:09:24;27.00;36.60
46139;DHT22;32398;49.112;8.598;2023-06-04T14:11:51;27.00;36.00
46139;DHT22;32398;49.112;8.598;2023-06-04T14:14:17;27.10;35.60
46139;DHT22;32398;49.112;8.598;2023-06-04T14:16:44;27.10;35.60
46139;DHT22;32398;49.112;8.598;2023-06-04T14:19:11;27.20;35.60
46139;DHT22;32398;49.112;8.598;2023-06-04T14:21:37;27.20;35.20
46139;DHT22;32398;49.112;8.598;2023-06-04T14:24:04;27.20;35.10
46139;DHT22;32398;49.112;8.598;2023-06-04T14:26:32;27.30;34.90
46139;DHT22;32398;49.112;8.598;2023-06-04T14:28:59;27.40;35.30
46139;DHT22;32398;49.112;8.598;2023-06-04T14:31:25;27.40;35.30
46139;DHT22;32398;49.112;8.598;2023-06-04T14:33:52;27.50;34.90
46139;DHT22;32398;49.112;8.598;2023-06-04T14:36:18;27.50;34.80
46139;DHT22;32398;49.112;8.598;2023-06-04T14:38:45;27.60;35.00
46139;DHT22;32398;49.112;8.598;2023-06-04T14:41:13;27.60;34.80
46139;DHT22;32398;49.112;8.598;2023-06-04T14:43:41;27.70;33.80
46139;DHT22;32398;49.112;8.598;2023-06-04T14:46:07;27.70;34.90
46139;DHT22;32398;49.112;8.598;2023-06-04T14:48:34;27.80;34.50
46139;DHT22;32398;49.112;8.598;2023-06-04T14:51:00;27.80;33.60
46139;DHT22;32398;49.112;8.598;2023-06-04T14:53:27;27.90;34.30
46139;DHT22;32398;49.112;8.598;2023-06-04T14:55:53;27.90;34.10
46139;DHT22;32398;49.112;8.598;2023-06-04T14:58:20;27.90;33.90
46139;DHT22;32398;49.112;8.598;2023-06-04T15:00:47;28.00;34.70
46139;DHT22;32398;49.112;8.598;2023-06-04T15:03:14;28.00;34.80
46139;DHT22;32398;49.112;8.598;2023-06-04T15:05:41;28.10;34.90
46139;DHT22;32398;49.112;8.598;2023-06-04T15:08:07;28.10;34.20
46139;DHT22;32398;49.112;8.598;2023-06-04T15:10:34;28.10;32.90
46139;DHT22;32398;49.112;8.598;2023-06-04T15:13:01;28.20;33.40
46139;DHT22;32398;49.112;8.598;2023-06-04T15:15:27;28.20;34.40
46139;DHT22;32398;49.112;8.598;2023-06-04T15:17:55;28.30;34.20
46139;DHT22;32398;49.112;8.598;2023-06-04T15:20:22;28.30;33.60
46139;DHT22;32398;49.112;8.598;2023-06-04T15:22:50;28.30;33.10
46139;DHT22;32398;49.112;8.598;2023-06-04T15:25:16;28.30;33.10
46139;DHT22;32398;49.112;8.598;2023-06-04T15:27:43;28.40;33.30
46139;DHT22;32398;49.112;8.598;2023-06-04T15:30:10;28.40;32.50